Time;durP1;ratioP1;P1;durP2;ratioP2;P2;SDS_P1;SDS_P2;PMS_P1;PMS_P2;Temp;Humidity;BMP_temperature;BMP_pressure;BME280_temperature;BME280_humidity;BME280_pressure;Samples;Min_cycle;Max_cycle;Signal;HPM_P1;HPM_P2
2022/05/30 00:00:07;;;;;;;10.27;4.70;;;;;;;7.62;100.00;100473.78;690333;28;1613;-46
2022/05/30 00:00:29;;;;;;;7.82;4.25;;;;;;;7.63;100.00;100472.94;690529;28;1400;-45
2022/05/30 00:00:50;;;;;;;7.65;4.30;;;;;;;7.61;100.00;100474.63;686449;28;4333;-44
2022/05/30 00:01:16;;;;;;;7.75;4.05;;;;;;;7.61;100.00;100471.19;687173;28;1083;-44
2022/05/30 00:01:37;;;;;;;7.68;4.25;;;;;;;7.61;100.00;100473.78;688467;28;1223;-45
2022/05/30 00:01:58;;;;;;;8.20;4.63;;;;;;;7.60;100.00;100478.13;688916;28;1064;-44
2022/05/30 00:02:18;;;;;;;9.10;4.50;;;;;;;7.59;100.00;100470.31;687435;28;1171;-44
2022/05/30 00:02:39;;;;;;;8.85;4.25;;;;;;;7.59;100.00;100472.91;686851;28;1258;-46
2022/05/30 00:02:59;;;;;;;8.13;4.10;;;;;;;7.58;100.00;100472.03;688183;28;1099;-44
2022/05/30 00:03:22;;;;;;;8.00;4.32;;;;;;;7.58;100.00;100471.16;688550;28;1346;-44
2022/05/30 00:03:42;;;;;;;7.30;4.47;;;;;;;7.59;100.00;100475.53;687524;28;4313;-46
2022/05/30 00:04:03;;;;;;;8.43;4.40;;;;;;;7.59;100.00;100480.72;688968;28;1201;-44
2022/05/30 00:04:24;;;;;;;8.98;4.45;;;;;;;7.58;100.00;100472.03;686426;28;1372;-45
2022/05/30 00:04:44;;;;;;;7.90;4.50;;;;;;;7.57;100.00;100474.63;685921;28;1480;-43
2022/05/30 00:05:05;;;;;;;8.60;4.33;;;;;;;7.56;100.00;100478.09;686952;28;1523;-45
2022/05/30 00:05:25;;;;;;;8.85;4.30;;;;;;;7.57;100.00;100478.09;685681;28;1437;-44
2022/05/30 00:05:49;;;;;;;7.03;4.30;;;;;;;7.58;100.00;100476.38;685660;28;1500;-44
2022/05/30 00:06:12;;;;;;;6.60;4.30;;;;;;;7.58;100.00;100474.63;685474;28;1581;-44
2022/05/30 00:06:33;;;;;;;10.93;4.40;;;;;;;7.59;100.00;100473.78;684877;28;1342;-47
2022/05/30 00:06:53;;;;;;;8.25;4.30;;;;;;;7.59;100.00;100471.19;689765;28;4394;-45
2022/05/30 00:07:13;;;;;;;8.13;4.30;;;;;;;7.60;100.00;100474.63;688648;28;1127;-45
2022/05/30 00:07:35;;;;;;;9.57;4.55;;;;;;;7.62;100.00;100473.78;688681;28;1325;-44
2022/05/30 00:07:57;;;;;;;9.70;4.55;;;;;;;7.62;100.00;100473.78;687269;28;1170;-44
2022/05/30 00:08:19;;;;;;;7.20;4.20;;;;;;;7.64;100.00;100477.28;689447;28;1273;-43
2022/05/30 00:08:40;;;;;;;7.70;4.38;;;;;;;7.65;100.00;100478.13;688372;28;1112;-44
2022/05/30 00:09:00;;;;;;;7.70;4.63;;;;;;;7.65;100.00;100470.31;687986;28;1918;-44
2022/05/30 00:09:20;;;;;;;10.05;4.82;;;;;;;7.64;100.00;100476.38;688640;28;1270;-46
2022/05/30 00:09:41;;;;;;;9.33;4.53;;;;;;;7.64;100.00;100473.78;687715;28;4281;-44
2022/05/30 00:10:01;;;;;;;9.53;4.73;;;;;;;7.64;100.00;100474.69;688610;28;1360;-44
2022/05/30 00:10:22;;;;;;;8.35;4.53;;;;;;;7.65;100.00;100475.53;689838;28;1428;-45
2022/05/30 00:10:43;;;;;;;8.70;4.70;;;;;;;7.64;100.00;100473.78;688802;28;1301;-45
2022/05/30 00:11:07;;;;;;;9.77;4.43;;;;;;;7.64;100.00;100476.38;687975;28;1435;-44
2022/05/30 00:11:27;;;;;;;10.10;4.70;;;;;;;7.63;100.00;100478.13;688588;28;1098;-44
2022/05/30 00:11:50;;;;;;;10.02;5.05;;;;;;;7.64;100.00;100473.78;688738;28;1159;-46
2022/05/30 00:12:11;;;;;;;7.68;4.55;;;;;;;7.64;100.00;100481.59;690575;28;1321;-46
2022/05/30 00:12:32;;;;;;;7.10;4.45;;;;;;;7.65;100.00;100479.00;691634;28;1033;-45
2022/05/30 00:12:53;;;;;;;6.93;4.32;;;;;;;7.66;100.00;100483.34;689323;28;4457;-44
2022/05/30 00:13:14;;;;;;;8.30;4.35;;;;;;;7.66;100.00;100480.75;691840;28;1135;-46
2022/05/30 00:13:35;;;;;;;12.05;4.93;;;;;;;7.66;100.00;100483.34;687846;28;1570;-44
2022/05/30 00:13:55;;;;;;;9.23;4.93;;;;;;;7.66;100.00;100477.28;689293;28;1092;-45
2022/05/30 00:14:16;;;;;;;8.93;4.65;;;;;;;7.64;100.00;100479.88;687193;28;1259;-44
2022/05/30 00:14:36;;;;;;;8.90;4.40;;;;;;;7.65;100.00;100475.53;687715;28;1326;-45
2022/05/30 00:14:57;;;;;;;9.43;4.50;;;;;;;7.66;100.00;100478.13;687810;28;1115;-44
2022/05/30 00:15:19;;;;;;;9.10;4.57;;;;;;;7.66;100.00;100482.47;688553;28;1465;-44
2022/05/30 00:15:41;;;;;;;9.68;4.93;;;;;;;7.65;100.00;100480.75;688646;28;4395;-43
2022/05/30 00:16:09;;;;;;;9.15;4.80;;;;;;;7.64;100.00;100481.59;689416;28;1542;-44
2022/05/30 00:16:30;;;;;;;12.07;4.63;;;;;;;7.64;100.00;100481.59;688761;28;1231;-46
2022/05/30 00:16:50;;;;;;;12.65;4.72;;;;;;;7.62;100.00;100473.78;690089;28;1244;-45
2022/05/30 00:17:11;;;;;;;11.07;4.77;;;;;;;7.62;100.00;100479.00;689329;28;1330;-44
2022/05/30 00:17:31;;;;;;;11.15;4.95;;;;;;;7.63;100.00;100482.47;687563;28;2685;-43
2022/05/30 00:17:56;;;;;;;9.93;4.70;;;;;;;7.62;100.00;100473.78;688324;28;1132;-44
2022/05/30 00:18:17;;;;;;;8.82;4.43;;;;;;;7.64;100.00;100485.09;686350;28;1336;-44
2022/05/30 00:18:37;;;;;;;9.63;4.78;;;;;;;7.62;100.00;100479.00;686505;28;4447;-44
2022/05/30 00:18:58;;;;;;;8.70;4.43;;;;;;;7.61;100.00;100476.38;687196;28;1173;-45
2022/05/30 00:19:18;;;;;;;10.20;4.47;;;;;;;7.60;100.00;100478.13;686064;28;1429;-44
2022/05/30 00:19:39;;;;;;;10.30;4.57;;;;;;;7.59;100.00;100478.13;687771;28;1312;-44
2022/05/30 00:20:00;;;;;;;8.70;4.60;;;;;;;7.60;100.00;100478.13;689181;28;1221;-44
2022/05/30 00:20:20;;;;;;;8.93;4.50;;;;;;;7.60;100.00;100477.22;689103;28;1468;-45
2022/05/30 00:20:45;;;;;;;7.88;4.55;;;;;;;7.57;100.00;100470.28;689723;28;1481;-44
2022/05/30 00:21:06;;;;;;;8.43;4.55;;;;;;;7.57;100.00;100474.63;688116;28;1296;-43
2022/05/30 00:21:27;;;;;;;9.32;4.40;;;;;;;7.58;100.00;100478.97;686177;28;1343;-44
2022/05/30 00:21:47;;;;;;;8.83;4.23;;;;;;;7.57;100.00;100479.81;686955;28;4601;-44
2022/05/30 00:22:11;;;;;;;9.30;4.53;;;;;;;7.56;100.00;100476.38;685848;28;1236;-45
2022/05/30 00:22:31;;;;;;;9.50;4.55;;;;;;;7.56;100.00;100483.28;687391;28;1092;-44
2022/05/30 00:22:52;;;;;;;8.00;4.40;;;;;;;7.55;100.00;100478.97;686038;28;1222;-45
2022/05/30 00:23:13;;;;;;;9.80;4.32;;;;;;;7.55;100.00;100484.16;688078;28;993;-45
2022/05/30 00:23:34;;;;;;;8.75;4.40;;;;;;;7.54;100.00;100475.47;689618;28;1277;-44
2022/05/30 00:23:54;;;;;;;8.13;4.37;;;;;;;7.55;100.00;100477.22;687413;28;1186;-44
2022/05/30 00:24:15;;;;;;;8.40;4.27;;;;;;;7.57;100.00;100477.22;687668;28;1318;-46
2022/05/30 00:24:35;;;;;;;7.43;4.30;;;;;;;7.57;100.00;100475.47;687490;28;4546;-43
2022/05/30 00:24:55;;;;;;;8.77;4.60;;;;;;;7.56;100.00;100475.47;689766;28;1139;-44
2022/05/30 00:25:16;;;;;;;9.07;4.53;;;;;;;7.56;100.00;100476.38;687533;28;1326;-46
2022/05/30 00:25:39;;;;;;;9.07;4.45;;;;;;;7.54;100.00;100478.09;688258;28;1245;-46
2022/05/30 00:26:03;;;;;;;8.60;4.13;;;;;;;7.55;100.00;100476.38;689957;28;1368;-44
2022/05/30 00:26:24;;;;;;;7.95;4.30;;;;;;;7.55;100.00;100478.97;689202;28;3476;-44
2022/05/30 00:26:44;;;;;;;7.75;4.25;;;;;;;7.55;100.00;100477.22;689913;28;1049;-45
2022/05/30 00:27:05;;;;;;;8.83;4.13;;;;;;;7.54;100.00;100485.88;689626;28;1382;-45
2022/05/30 00:27:25;;;;;;;8.98;4.25;;;;;;;7.55;100.00;100481.56;684515;28;1536;-46
2022/05/30 00:27:46;;;;;;;8.80;4.90;;;;;;;7.54;100.00;100482.44;680807;28;4307;-45
2022/05/30 00:28:06;;;;;;;9.55;4.82;;;;;;;7.54;100.00;100472.88;681984;28;1095;-45
2022/05/30 00:28:27;;;;;;;7.80;4.30;;;;;;;7.54;100.00;100485.03;685006;28;1353;-44
2022/05/30 00:28:47;;;;;;;8.65;4.25;;;;;;;7.54;100.00;100472.88;682026;28;1207;-46
2022/05/30 00:29:08;;;;;;;8.93;4.20;;;;;;;7.54;100.00;100474.63;682376;28;1983;-45
2022/05/30 00:29:28;;;;;;;8.00;4.20;;;;;;;7.53;100.00;100473.72;682491;28;1647;-43
2022/05/30 00:29:49;;;;;;;7.57;4.40;;;;;;;7.53;100.00;100472.88;683563;28;1232;-44
2022/05/30 00:30:11;;;;;;;8.40;4.55;;;;;;;7.53;100.00;100478.94;684775;28;1293;-44
2022/05/30 00:30:31;;;;;;;11.88;4.82;;;;;;;7.53;100.00;100471.13;683116;28;1274;-47
2022/05/30 00:30:52;;;;;;;9.57;4.70;;;;;;;7.53;100.00;100480.69;684260;28;4584;-44
2022/05/30 00:31:14;;;;;;;9.15;4.60;;;;;;;7.52;100.00;100471.13;685340;28;1390;-44
2022/05/30 00:31:35;;;;;;;9.27;4.57;;;;;;;7.53;100.00;100472.88;686144;28;1164;-45
2022/05/30 00:31:57;;;;;;;8.13;4.27;;;;;;;7.55;100.00;100477.22;686425;28;1129;-47
2022/05/30 00:32:18;;;;;;;11.00;4.40;;;;;;;7.55;100.00;100479.81;685925;28;1173;-45
2022/05/30 00:32:38;;;;;;;9.63;4.50;;;;;;;7.56;100.00;100475.47;688923;28;1297;-44
2022/05/30 00:32:59;;;;;;;8.63;4.30;;;;;;;7.56;100.00;100472.88;687793;28;1104;-46
2022/05/30 00:33:20;;;;;;;9.60;4.23;;;;;;;7.56;100.00;100472.88;687414;28;1150;-47
2022/05/30 00:33:42;;;;;;;10.35;4.10;;;;;;;7.55;100.00;100471.16;685578;28;4617;-46
2022/05/30 00:34:03;;;;;;;9.55;4.20;;;;;;;7.55;100.00;100471.16;689047;28;1218;-45
2022/05/30 00:34:24;;;;;;;7.50;4.13;;;;;;;7.54;100.00;100474.63;687916;28;1262;-46
2022/05/30 00:34:45;;;;;;;7.82;4.43;;;;;;;7.53;100.00;100468.53;687682;28;1105;-46
2022/05/30 00:35:06;;;;;;;7.18;4.07;;;;;;;7.53;100.00;100468.53;689146;28;1318;-44
2022/05/30 00:35:27;;;;;;;7.10;4.40;;;;;;;7.56;100.00;100475.47;688347;28;1254;-45
2022/05/30 00:35:47;;;;;;;8.00;4.38;;;;;;;7.55;100.00;100476.38;685005;28;1170;-45
2022/05/30 00:36:08;;;;;;;10.20;4.65;;;;;;;7.53;100.00;100471.13;687965;28;1320;-45
2022/05/30 00:36:30;;;;;;;9.20;4.70;;;;;;;7.53;100.00;100468.53;687621;28;1258;-45
2022/05/30 00:36:50;;;;;;;9.18;4.32;;;;;;;7.51;100.00;100472.88;689193;28;4438;-45
2022/05/30 00:37:11;;;;;;;9.53;4.50;;;;;;;7.50;100.00;100469.41;690558;28;1327;-44
2022/05/30 00:37:31;;;;;;;7.97;4.32;;;;;;;7.50;100.00;100468.53;688001;28;1287;-46
2022/05/30 00:37:51;;;;;;;8.13;4.30;;;;;;;7.49;100.00;100472.88;687790;28;1111;-44
2022/05/30 00:38:12;;;;;;;9.90;4.43;;;;;;;7.48;100.00;100465.91;685885;28;1251;-45
2022/05/30 00:38:32;;;;;;;9.23;4.40;;;;;;;7.49;100.00;100467.66;685988;28;1239;-44
2022/05/30 00:38:55;;;;;;;9.38;4.50;;;;;;;7.49;100.00;100469.38;685501;28;1127;-44
2022/05/30 00:39:16;;;;;;;10.27;4.32;;;;;;;7.50;100.00;100469.41;686884;28;1290;-46
2022/05/30 00:39:36;;;;;;;10.23;4.35;;;;;;;7.50;100.00;100466.81;685860;28;4523;-44
2022/05/30 00:39:57;;;;;;;12.23;4.60;;;;;;;7.50;100.00;100471.13;685849;28;1362;-45
2022/05/30 00:40:18;;;;;;;10.55;4.40;;;;;;;7.47;100.00;100469.38;687450;28;1343;-45
2022/05/30 00:40:39;;;;;;;10.38;4.30;;;;;;;7.47;100.00;100469.38;684722;28;1223;-46
2022/05/30 00:41:00;;;;;;;8.57;3.90;;;;;;;7.48;100.00;100465.91;686836;28;1144;-44
2022/05/30 00:41:20;;;;;;;8.07;4.10;;;;;;;7.49;100.00;100462.47;686412;28;4676;-44
2022/05/30 00:41:40;;;;;;;8.07;4.10;;;;;;;7.48;100.00;100471.13;686119;28;1243;-44
2022/05/30 00:42:16;;;;;;;8.23;4.38;;;;;;;7.49;100.00;100469.38;689187;28;1202;-44
2022/05/30 00:42:37;;;;;;;10.10;4.60;;;;;;;7.49;100.00;100466.78;688261;28;4340;-46
2022/05/30 00:43:17;;;;;;;10.30;4.78;;;;;;;7.47;100.00;100464.16;691169;28;1134;-45
2022/05/30 00:43:40;;;;;;;8.07;3.95;;;;;;;7.47;100.00;100471.97;692593;28;1267;-44
2022/05/30 00:44:01;;;;;;;7.57;4.20;;;;;;;7.47;100.00;100464.16;689669;28;1274;-45
2022/05/30 00:44:21;;;;;;;7.40;4.43;;;;;;;7.47;100.00;100466.78;688604;28;1421;-46
2022/05/30 00:44:43;;;;;;;7.05;4.20;;;;;;;7.47;100.00;100468.50;687341;28;1436;-44
2022/05/30 00:45:04;;;;;;;7.43;4.30;;;;;;;7.48;100.00;100462.47;685979;28;1406;-47
2022/05/30 00:45:25;;;;;;;8.48;4.28;;;;;;;7.47;100.00;100469.38;688977;28;1255;-44
2022/05/30 00:45:46;;;;;;;9.07;4.60;;;;;;;7.45;100.00;100465.91;687817;28;5822;-45
2022/05/30 00:46:12;;;;;;;9.98;4.50;;;;;;;7.44;100.00;100469.38;688027;28;1259;-46
2022/05/30 00:46:33;;;;;;;8.30;4.40;;;;;;;7.44;100.00;100464.16;688556;28;1271;-45
2022/05/30 00:46:53;;;;;;;9.40;4.57;;;;;;;7.43;100.00;100459.81;687790;28;1611;-44
2022/05/30 00:47:16;;;;;;;9.97;4.47;;;;;;;7.44;100.00;100464.16;685372;28;1455;-44
2022/05/30 00:47:38;;;;;;;8.07;4.53;;;;;;;7.44;100.00;100468.50;686235;28;1151;-45
2022/05/30 00:47:58;;;;;;;9.50;4.60;;;;;;;7.43;100.00;100462.41;684824;28;1310;-46
2022/05/30 00:48:23;;;;;;;10.07;4.33;;;;;;;7.44;100.00;100465.91;687487;28;1605;-44
2022/05/30 00:48:50;;;;;;;8.57;4.68;;;;;;;7.43;100.00;100466.75;686187;28;4392;-45
2022/05/30 00:49:13;;;;;;;8.50;4.32;;;;;;;7.43;100.00;100459.81;686825;28;1239;-45
2022/05/30 00:49:35;;;;;;;8.00;4.57;;;;;;;7.42;100.00;100460.69;686764;28;1148;-44
2022/05/30 00:49:56;;;;;;;8.45;4.40;;;;;;;7.41;100.00;100461.56;686738;28;1068;-43
2022/05/30 00:50:18;;;;;;;7.40;4.10;;;;;;;7.41;100.00;100458.94;688509;28;1231;-44
2022/05/30 00:50:39;;;;;;;9.30;4.20;;;;;;;7.42;100.00;100465.91;688363;28;1511;-44
2022/05/30 00:51:09;;;;;;;10.63;4.57;;;;;;;7.42;100.00;100458.09;689863;28;1153;-44
2022/05/30 00:51:45;;;;;;;7.55;4.28;;;;;;;7.44;100.00;100458.97;688934;28;1216;-45
2022/05/30 00:52:09;;;;;;;9.48;4.38;;;;;;;7.43;100.00;100454.63;688377;28;4985;-45
2022/05/30 00:52:36;;;;;;;10.02;4.43;;;;;;;7.43;100.00;100459.81;687841;28;1283;-45
2022/05/30 00:52:56;;;;;;;9.80;4.32;;;;;;;7.42;100.00;100455.50;689704;28;1230;-44
2022/05/30 00:53:17;;;;;;;9.97;4.50;;;;;;;7.42;100.00;100458.09;689437;28;1124;-44
2022/05/30 00:53:40;;;;;;;9.63;4.35;;;;;;;7.42;100.00;100460.69;688499;28;1219;-45
2022/05/30 00:54:03;;;;;;;10.77;4.50;;;;;;;7.41;100.00;100458.09;689552;28;1258;-45
2022/05/30 00:54:32;;;;;;;9.90;4.47;;;;;;;7.41;100.00;100461.56;689560;28;1441;-43
2022/05/30 00:55:00;;;;;;;8.43;4.13;;;;;;;7.41;100.00;100452.91;684521;28;4446;-44
2022/05/30 00:55:21;;;;;;;8.82;4.50;;;;;;;7.41;100.00;100452.91;684837;28;947;-44
2022/05/30 00:55:43;;;;;;;10.00;4.45;;;;;;;7.40;100.00;100449.41;681731;28;1438;-45
2022/05/30 00:56:08;;;;;;;11.50;4.60;;;;;;;7.41;100.00;100453.75;681799;28;1141;-44
2022/05/30 00:56:32;;;;;;;9.13;4.10;;;;;;;7.41;100.00;100453.75;686154;28;1068;-45
2022/05/30 00:56:55;;;;;;;10.52;4.32;;;;;;;7.40;100.00;100457.22;682454;28;1410;-45
2022/05/30 00:57:22;;;;;;;10.55;4.75;;;;;;;7.39;100.00;100454.59;682207;28;1125;-45
2022/05/30 00:57:45;;;;;;;10.70;4.40;;;;;;;7.38;100.00;100453.75;683422;28;4635;-45
2022/05/30 00:58:08;;;;;;;8.57;4.35;;;;;;;7.39;100.00;100452.84;687193;28;1530;-46
2022/05/30 00:58:33;;;;;;;7.60;4.40;;;;;;;7.39;100.00;100450.25;683644;28;1187;-44
2022/05/30 00:58:54;;;;;;;9.65;4.50;;;;;;;7.40;100.00;100452.00;685871;28;1261;-44
2022/05/30 00:59:15;;;;;;;7.47;4.47;;;;;;;7.37;100.00;100452.00;683348;28;1247;-44
2022/05/30 00:59:36;;;;;;;7.82;4.60;;;;;;;7.39;100.00;100454.59;684001;28;1349;-46
2022/05/30 01:00:09;;;;;;;9.43;4.47;;;;;;;7.38;100.00;100448.53;684250;28;1363;-44
2022/05/30 01:00:31;;;;;;;8.82;4.60;;;;;;;7.39;100.00;100460.66;686425;28;1162;-44
2022/05/30 01:00:52;;;;;;;9.35;4.43;;;;;;;7.36;100.00;100455.44;687001;28;4237;-45
2022/05/30 01:01:13;;;;;;;9.43;4.50;;;;;;;7.37;100.00;100456.34;685118;28;1334;-44
2022/05/30 01:01:34;;;;;;;9.25;4.50;;;;;;;7.37;100.00;100452.00;687689;28;1657;-44
2022/05/30 01:01:55;;;;;;;8.13;4.75;;;;;;;7.38;100.00;100453.75;684930;28;1418;-44
2022/05/30 01:02:15;;;;;;;7.10;4.30;;;;;;;7.37;100.00;100449.41;683080;28;1453;-45
2022/05/30 01:02:39;;;;;;;8.18;4.30;;;;;;;7.39;100.00;100454.59;683517;28;1351;-44
2022/05/30 01:06:42;;;;;;;10.63;4.50;;;;;;;7.40;100.00;100454.59;677807;28;4487;-44
2022/05/30 01:07:10;;;;;;;7.53;4.53;;;;;;;7.41;100.00;100451.16;678402;28;1355;-44
2022/05/30 01:07:32;;;;;;;7.72;4.30;;;;;;;7.42;100.00;100455.50;678527;28;1350;-44
2022/05/30 01:07:53;;;;;;;8.48;4.60;;;;;;;7.41;100.00;100451.16;677893;28;1136;-45
2022/05/30 01:08:14;;;;;;;7.75;4.88;;;;;;;7.41;100.00;100453.75;677302;29;1349;-46
2022/05/30 01:08:34;;;;;;;9.57;4.60;;;;;;;7.41;100.00;100453.75;678470;29;1502;-45
2022/05/30 01:08:55;;;;;;;9.85;4.90;;;;;;;7.40;100.00;100452.00;675481;28;1978;-44
2022/05/30 01:09:22;;;;;;;8.10;4.70;;;;;;;7.41;100.00;100452.91;672212;29;1311;-44
2022/05/30 01:09:45;;;;;;;8.73;4.43;;;;;;;7.40;100.00;100454.59;672082;29;4373;-46
2022/05/30 01:10:09;;;;;;;8.38;4.40;;;;;;;7.40;100.00;100452.00;681748;28;1328;-44
2022/05/30 01:10:29;;;;;;;8.73;4.78;;;;;;;7.40;100.00;100457.22;687173;28;1244;-45
2022/05/30 01:10:49;;;;;;;9.97;4.50;;;;;;;7.41;100.00;100451.16;687643;28;1133;-44
2022/05/30 01:11:10;;;;;;;9.67;4.43;;;;;;;7.41;100.00;100440.75;685713;28;1328;-43
2022/05/30 01:12:10;;;;;;;8.77;4.38;;;;;;;7.42;100.00;100449.41;687658;28;1192;-44
2022/05/30 01:12:36;;;;;;;9.88;5.40;;;;;;;7.41;100.00;100448.56;673919;29;1110;-45
2022/05/30 01:12:58;;;;;;;10.90;4.78;;;;;;;7.41;100.00;100448.56;673701;29;5482;-44
2022/05/30 01:13:18;;;;;;;8.30;4.60;;;;;;;7.41;100.00;100448.56;670574;29;1433;-46
2022/05/30 01:13:40;;;;;;;9.55;4.53;;;;;;;7.40;100.00;100452.00;669386;29;1275;-44
2022/05/30 01:14:02;;;;;;;9.50;4.55;;;;;;;7.41;100.00;100445.94;669423;29;1691;-44
2022/05/30 01:14:26;;;;;;;8.30;4.47;;;;;;;7.43;100.00;100445.94;671836;29;1368;-44
2022/05/30 01:14:48;;;;;;;9.40;4.40;;;;;;;7.42;100.00;100450.31;668404;29;1435;-46
2022/05/30 01:15:16;;;;;;;8.63;4.43;;;;;;;7.42;100.00;100450.31;669470;29;1190;-44
2022/05/30 01:15:36;;;;;;;13.10;5.50;;;;;;;7.42;100.00;100455.50;669425;29;4576;-45
2022/05/30 01:15:57;;;;;;;13.70;5.00;;;;;;;7.44;100.00;100445.97;670127;29;1222;-45
2022/05/30 01:16:19;;;;;;;9.73;4.30;;;;;;;7.46;100.00;100452.06;670051;29;1293;-45
2022/05/30 01:16:40;;;;;;;9.57;4.57;;;;;;;7.47;100.00;100448.56;669281;29;2526;-45
2022/05/30 01:17:03;;;;;;;10.70;4.45;;;;;;;7.47;100.00;100450.31;670924;29;1285;-45
2022/05/30 01:17:23;;;;;;;9.10;4.40;;;;;;;7.47;100.00;100448.56;669667;29;1342;-44
2022/05/30 01:17:59;;;;;;;9.73;4.60;;;;;;;7.47;100.00;100455.50;671414;29;1351;-44
2022/05/30 01:18:31;;;;;;;9.00;4.65;;;;;;;7.47;100.00;100448.56;669278;28;1337;-45
2022/05/30 01:18:57;;;;;;;7.57;4.63;;;;;;;7.47;100.00;100452.91;686049;28;4284;-45
2022/05/30 01:19:40;;;;;;;9.20;4.53;;;;;;;7.48;100.00;100449.44;688351;28;1556;-44
2022/05/30 01:20:05;;;;;;;6.45;4.47;;;;;;;7.48;100.00;100454.66;688315;28;1247;-44
2022/05/30 01:20:39;;;;;;;8.25;4.53;;;;;;;7.47;100.00;100453.75;686770;28;1793;-44
2022/05/30 01:21:40;;;;;;;8.27;4.40;;;;;;;7.47;100.00;100447.72;690756;28;1268;-44
2022/05/30 01:22:03;;;;;;;8.82;4.80;;;;;;;7.47;100.00;100452.91;685401;28;6838;-46
2022/05/30 01:22:41;;;;;;;10.00;4.57;;;;;;;7.47;100.00;100450.31;686436;28;1033;-44
2022/05/30 01:23:22;;;;;;;8.90;4.50;;;;;;;7.46;100.00;100446.84;689343;28;1972;-44
2022/05/30 01:24:05;;;;;;;6.95;4.50;;;;;;;7.45;100.00;100449.44;686144;28;1248;-44
2022/05/30 01:25:01;;;;;;;8.88;4.28;;;;;;;7.45;100.00;100452.91;689728;28;4546;-44
2022/05/30 01:26:17;;;;;;;9.13;4.50;;;;;;;7.47;100.00;100448.56;687004;28;1575;-47
2022/05/30 01:27:07;;;;;;;7.80;4.25;;;;;;;7.50;100.00;100446.00;691142;28;1325;-44
2022/05/30 01:27:49;;;;;;;8.98;4.40;;;;;;;7.50;100.00;100443.41;687471;28;1434;-45
2022/05/30 01:28:30;;;;;;;8.82;4.50;;;;;;;7.52;100.00;100442.50;686539;28;5394;-45
2022/05/30 01:29:09;;;;;;;8.10;4.60;;;;;;;7.53;100.00;100447.72;683317;28;1231;-45
2022/05/30 01:29:38;;;;;;;6.97;4.28;;;;;;;7.54;100.00;100443.41;686046;28;1597;-44
2022/05/30 01:30:04;;;;;;;8.65;4.68;;;;;;;7.53;100.00;100446.84;684168;28;2354;-47
2022/05/30 01:30:26;;;;;;;10.70;4.55;;;;;;;7.53;100.00;100442.50;685244;28;1506;-44
2022/05/30 01:30:49;;;;;;;7.80;4.63;;;;;;;7.52;100.00;100443.41;681390;28;4341;-44
2022/05/30 01:31:10;;;;;;;7.38;4.63;;;;;;;7.52;100.00;100445.13;681506;28;1549;-43
2022/05/30 01:31:32;;;;;;;8.00;4.50;;;;;;;7.52;100.00;100445.13;679791;28;1545;-45
2022/05/30 01:31:54;;;;;;;7.35;4.63;;;;;;;7.50;100.00;100440.81;679670;28;1317;-45
2022/05/30 01:32:21;;;;;;;9.25;4.80;;;;;;;7.50;100.00;100443.41;679856;28;1088;-46
2022/05/30 01:32:42;;;;;;;10.07;4.43;;;;;;;7.50;100.00;100438.19;679995;28;1539;-45
2022/05/30 01:33:03;;;;;;;8.38;4.50;;;;;;;7.52;100.00;100447.72;680491;28;1070;-44
2022/05/30 01:33:24;;;;;;;9.27;4.60;;;;;;;7.50;100.00;100446.00;681107;28;1389;-46
2022/05/30 01:33:45;;;;;;;8.50;4.53;;;;;;;7.49;100.00;100441.66;680855;28;4451;-46
2022/05/30 01:34:06;;;;;;;8.77;4.70;;;;;;;7.50;100.00;100440.81;683108;28;1120;-45
2022/05/30 01:34:27;;;;;;;8.10;4.72;;;;;;;7.50;100.00;100442.50;683825;28;1215;-45
2022/05/30 01:34:48;;;;;;;7.70;4.65;;;;;;;7.50;100.00;100445.09;686800;28;1327;-45
2022/05/30 01:35:27;;;;;;;8.65;4.65;;;;;;;7.51;100.00;100444.25;686073;28;1286;-44
2022/05/30 01:35:49;;;;;;;8.27;4.47;;;;;;;7.51;100.00;100444.25;683487;28;1591;-45
2022/05/30 01:36:13;;;;;;;9.70;4.70;;;;;;;7.49;100.00;100441.66;682309;28;1483;-44
2022/05/30 01:36:34;;;;;;;7.95;4.57;;;;;;;7.50;100.00;100440.81;679369;28;1249;-45
2022/05/30 01:36:54;;;;;;;10.07;4.85;;;;;;;7.50;100.00;100435.59;680905;28;5867;-44
2022/05/30 01:37:19;;;;;;;8.88;4.63;;;;;;;7.50;100.00;100432.09;685101;28;1359;-44
2022/05/30 01:37:39;;;;;;;8.40;4.30;;;;;;;7.49;100.00;100436.44;685165;28;1679;-45
2022/05/30 01:38:00;;;;;;;9.07;4.60;;;;;;;7.49;100.00;100433.84;684081;28;1272;-44
2022/05/30 01:38:24;;;;;;;8.77;4.53;;;;;;;7.50;100.00;100437.31;681185;28;1832;-44
2022/05/30 01:38:47;;;;;;;10.68;4.10;;;;;;;7.50;100.00;100433.00;683587;28;1271;-44
2022/05/30 01:39:13;;;;;;;9.77;4.38;;;;;;;7.50;100.00;100434.72;684462;28;1235;-45
2022/05/30 01:39:44;;;;;;;8.38;4.40;;;;;;;7.50;100.00;100435.59;687595;28;4263;-43
2022/05/30 01:40:06;;;;;;;8.55;4.25;;;;;;;7.49;100.00;100436.44;688714;28;1223;-44
2022/05/30 01:40:28;;;;;;;8.15;4.50;;;;;;;7.49;100.00;100436.44;686781;28;1283;-44
2022/05/30 01:40:49;;;;;;;9.67;4.63;;;;;;;7.48;100.00;100434.69;686258;28;1140;-45
2022/05/30 01:41:09;;;;;;;9.80;4.53;;;;;;;7.51;100.00;100436.44;682353;28;1752;-44
2022/05/30 01:41:32;;;;;;;11.48;4.60;;;;;;;7.49;100.00;100433.84;684613;28;4767;-44
2022/05/30 01:41:53;;;;;;;9.90;4.43;;;;;;;7.49;100.00;100433.84;683434;28;1477;-46
2022/05/30 01:42:15;;;;;;;7.00;4.32;;;;;;;7.48;100.00;100424.31;684599;28;1467;-45
2022/05/30 01:42:37;;;;;;;6.85;4.22;;;;;;;7.49;100.00;100436.44;682927;28;4402;-44
2022/05/30 01:42:58;;;;;;;7.75;4.20;;;;;;;7.49;100.00;100432.97;681343;28;1005;-45
2022/05/30 01:43:19;;;;;;;9.33;4.73;;;;;;;7.48;100.00;100431.25;680664;28;1605;-44
2022/05/30 01:43:46;;;;;;;9.18;4.75;;;;;;;7.47;100.00;100432.97;682505;28;1440;-44
2022/05/30 01:44:07;;;;;;;8.98;4.65;;;;;;;7.48;100.00;100429.50;686131;28;1438;-44
2022/05/30 01:44:27;;;;;;;9.40;4.60;;;;;;;7.49;100.00;100432.97;683887;28;1396;-45
2022/05/30 01:44:49;;;;;;;7.82;4.50;;;;;;;7.49;100.00;100430.34;684867;28;1401;-46
2022/05/30 01:45:09;;;;;;;8.40;4.40;;;;;;;7.49;100.00;100431.25;686867;28;1371;-43
2022/05/30 01:45:30;;;;;;;8.68;4.20;;;;;;;7.48;100.00;100429.50;686828;28;1496;-46
2022/05/30 01:45:52;;;;;;;8.55;4.10;;;;;;;7.48;100.00;100424.31;686184;28;4351;-45
2022/05/30 01:46:16;;;;;;;9.35;4.55;;;;;;;7.48;100.00;100429.50;686318;28;1144;-44
2022/05/30 01:46:42;;;;;;;7.53;4.35;;;;;;;7.49;100.00;100431.25;686624;28;1435;-44
2022/05/30 01:47:04;;;;;;;7.82;4.22;;;;;;;7.49;100.00;100428.66;685887;28;1052;-44
2022/05/30 01:47:25;;;;;;;8.65;4.30;;;;;;;7.50;100.00;100427.78;685640;28;1449;-45
2022/05/30 01:47:46;;;;;;;8.30;4.30;;;;;;;7.52;100.00;100439.91;685960;28;1426;-46
2022/05/30 01:48:07;;;;;;;8.07;4.38;;;;;;;7.54;100.00;100430.41;687019;28;1516;-44
2022/05/30 01:48:27;;;;;;;7.50;4.07;;;;;;;7.52;100.00;100430.41;686177;28;1378;-47
2022/05/30 01:48:48;;;;;;;7.80;4.00;;;;;;;7.53;100.00;100432.09;684591;28;4539;-44
2022/05/30 01:49:10;;;;;;;8.18;3.75;;;;;;;7.52;100.00;100432.09;683235;28;1942;-44
2022/05/30 01:49:30;;;;;;;10.80;4.13;;;;;;;7.52;100.00;100432.09;684925;28;890;-44
2022/05/30 01:49:51;;;;;;;7.32;4.15;;;;;;;7.50;100.00;100427.78;688383;28;1243;-45
2022/05/30 01:50:14;;;;;;;8.18;4.20;;;;;;;7.52;100.00;100429.50;688128;28;1585;-43
2022/05/30 01:50:35;;;;;;;8.57;4.15;;;;;;;7.50;100.00;100427.78;686221;28;1249;-44
2022/05/30 01:51:08;;;;;;;8.52;4.28;;;;;;;7.50;100.00;100432.09;687506;28;1430;-46
2022/05/30 01:51:29;;;;;;;8.43;4.38;;;;;;;7.52;100.00;100429.50;687140;28;1138;-45
2022/05/30 01:51:54;;;;;;;7.68;4.10;;;;;;;7.49;100.00;100433.84;686071;28;4402;-45
2022/05/30 01:52:16;;;;;;;7.50;3.95;;;;;;;7.50;100.00;100425.19;686745;28;1232;-46
2022/05/30 01:52:38;;;;;;;8.35;3.90;;;;;;;7.50;100.00;100430.41;686222;28;1273;-45
2022/05/30 01:52:58;;;;;;;8.02;4.07;;;;;;;7.53;100.00;100428.66;685375;28;1454;-44
2022/05/30 01:53:54;;;;;;;8.02;3.95;;;;;;;7.54;100.00;100423.44;683961;28;1292;-45
2022/05/30 01:54:14;;;;;;;7.88;4.20;;;;;;;7.50;100.00;100430.41;685057;28;968;-43
2022/05/30 01:55:02;;;;;;;7.22;3.90;;;;;;;7.52;100.00;100426.91;683143;28;4873;-45
2022/05/30 01:55:58;;;;;;;7.30;4.15;;;;;;;7.49;100.00;100420.84;680193;28;960;-46
2022/05/30 01:56:21;;;;;;;6.55;4.00;;;;;;;7.49;100.00;100425.16;680772;28;1511;-46
2022/05/30 01:56:41;;;;;;;6.72;3.92;;;;;;;7.48;100.00;100419.09;683552;28;1655;-45